createdAt,value
2023-04-03T00:00:59.778Z,34.13
2023-04-03T00:01:59.857Z,34.09
2023-04-03T00:02:59.836Z,34.12
2023-04-03T00:03:59.866Z,34.11
2023-04-03T00:04:59.912Z,34.09
2023-04-03T00:05:59.913Z,34.10
2023-04-03T00:06:59.940Z,34.13
2023-04-03T00:07:59.962Z,34.12
2023-04-03T00:09:00.013Z,34.10
2023-04-03T00:10:00.020Z,34.14
2023-04-03T00:11:00.746Z,34.12
2023-04-03T00:12:00.129Z,34.08
2023-04-03T00:13:00.165Z,34.10
2023-04-03T00:14:00.187Z,34.09
2023-04-03T00:15:00.199Z,34.10
2023-04-03T00:16:00.230Z,34.09
2023-04-03T00:17:00.359Z,34.09
2023-04-03T00:18:00.315Z,34.11
2023-04-03T00:19:00.286Z,34.06
2023-04-03T00:20:00.334Z,34.09
2023-04-03T00:21:00.371Z,34.08
2023-04-03T00:22:00.414Z,34.09
2023-04-03T00:23:00.418Z,34.09
2023-04-03T00:24:00.436Z,34.05
2023-04-03T00:25:00.442Z,34.09
2023-04-03T00:26:00.501Z,34.06
2023-04-03T00:27:00.532Z,34.05
2023-04-03T00:28:00.576Z,34.07
2023-04-03T00:29:00.593Z,34.05
2023-04-03T00:30:00.602Z,34.05
2023-04-03T00:31:00.680Z,34.06
2023-04-03T00:32:00.717Z,34.05
2023-04-03T00:33:00.741Z,34.02
2023-04-03T00:34:00.707Z,34.04
2023-04-03T00:35:00.776Z,34.02
2023-04-03T00:36:00.825Z,34.07
2023-04-03T00:37:00.920Z,34.03
2023-04-03T00:38:00.869Z,34.06
2023-04-03T00:39:00.909Z,34.04
2023-04-03T00:40:00.914Z,34.04
2023-04-03T00:41:00.950Z,34.05
2023-04-03T00:42:00.970Z,34.01
2023-04-03T00:43:00.990Z,34.03
2023-04-03T00:44:01.028Z,34.03
2023-04-03T00:45:01.064Z,34.01
2023-04-03T00:46:01.117Z,34.05
2023-04-03T00:47:01.094Z,34.00
2023-04-03T00:48:01.162Z,34.01
2023-04-03T00:49:01.138Z,33.99
2023-04-03T00:50:01.203Z,34.03
2023-04-03T00:51:01.218Z,34.03
2023-04-03T00:52:01.295Z,34.00
2023-04-03T00:53:01.282Z,34.04
2023-04-03T00:54:01.314Z,34.01
2023-04-03T00:55:01.350Z,34.00
2023-04-03T00:56:01.400Z,34.01
2023-04-03T00:57:01.393Z,34.01
2023-04-03T00:58:01.425Z,33.99
2023-04-03T00:59:01.469Z,33.99
2023-04-03T01:00:01.494Z,33.96
2023-04-03T01:01:01.514Z,34.00
2023-04-03T01:02:01.615Z,33.96
2023-04-03T01:03:01.614Z,34.03
2023-04-03T01:04:01.639Z,33.97
2023-04-03T01:05:01.616Z,33.96
2023-04-03T01:06:01.657Z,33.97
2023-04-03T01:07:01.709Z,33.99
2023-04-03T01:08:01.713Z,33.97
2023-04-03T01:09:01.763Z,33.97
2023-04-03T01:10:01.784Z,33.96
2023-04-03T01:11:01.810Z,33.94
2023-04-03T01:12:01.854Z,34.01
2023-04-03T01:13:01.899Z,33.99
2023-04-03T01:14:01.893Z,34.00
2023-04-03T01:15:01.923Z,34.04
2023-04-03T01:16:02.039Z,33.94
2023-04-03T01:17:02.029Z,33.96
2023-04-03T01:18:02.039Z,33.97
2023-04-03T01:19:02.038Z,33.92
2023-04-03T01:20:02.108Z,33.94
2023-04-03T01:21:02.111Z,34.00
2023-04-03T01:22:02.135Z,33.96
2023-04-03T01:23:02.166Z,33.94
2023-04-03T01:24:02.232Z,33.98
2023-04-03T01:25:02.234Z,33.95
2023-04-03T01:26:02.256Z,33.91
2023-04-03T01:27:02.278Z,33.92
2023-04-03T01:28:02.281Z,33.93
2023-04-03T01:29:02.345Z,33.91
2023-04-03T01:30:02.378Z,33.92
2023-04-03T01:31:02.465Z,33.92
2023-04-03T01:32:02.436Z,33.92
2023-04-03T01:33:02.551Z,33.92
2023-04-03T01:34:02.485Z,33.97
2023-04-03T01:35:02.498Z,33.91
2023-04-03T01:36:02.555Z,33.94
2023-04-03T01:37:02.593Z,33.87
2023-04-03T01:38:02.600Z,33.91
2023-04-03T01:39:02.618Z,33.89
2023-04-03T01:40:02.637Z,33.91
2023-04-03T01:41:02.697Z,33.89
2023-04-03T01:42:02.774Z,33.90
2023-04-03T01:43:02.737Z,33.90
2023-04-03T01:44:02.766Z,33.89
2023-04-03T01:45:02.789Z,33.86
2023-04-03T01:46:02.904Z,33.89
2023-04-03T01:47:02.899Z,33.87
2023-04-03T01:48:02.939Z,33.86
2023-04-03T01:49:02.918Z,33.89
2023-04-03T01:50:02.965Z,33.87
2023-04-03T01:51:03.005Z,33.86
2023-04-03T01:52:03.028Z,33.87
2023-04-03T01:53:03.045Z,33.84
2023-04-03T01:54:03.068Z,33.89
2023-04-03T01:55:03.104Z,33.86
2023-04-03T01:56:03.170Z,33.82
2023-04-03T01:57:03.234Z,33.83
2023-04-03T01:58:03.172Z,33.79
2023-04-03T01:59:03.228Z,33.82
2023-04-03T02:00:03.248Z,33.79
2023-04-03T02:01:03.337Z,33.81
2023-04-03T02:02:03.318Z,33.82
2023-04-03T02:03:03.362Z,33.83
2023-04-03T02:04:03.413Z,33.79
2023-04-03T02:05:03.428Z,33.81
2023-04-03T02:06:03.439Z,33.83
2023-04-03T02:07:03.524Z,33.84
2023-04-03T02:08:03.512Z,33.82
2023-04-03T02:09:03.524Z,33.78
2023-04-03T02:10:03.576Z,33.82
2023-04-03T02:11:03.613Z,33.76
2023-04-03T02:12:03.655Z,33.79
2023-04-03T02:13:03.698Z,33.78
2023-04-03T02:14:03.705Z,33.82
2023-04-03T02:15:03.735Z,33.81
2023-04-03T02:16:03.770Z,33.78
2023-04-03T02:17:03.847Z,33.79
2023-04-03T02:18:07.683Z,33.78
2023-04-03T02:19:03.792Z,33.76
2023-04-03T02:20:03.818Z,33.75
2023-04-03T02:21:03.825Z,33.74
2023-04-03T02:22:03.806Z,33.73
2023-04-03T02:23:03.808Z,33.75
2023-04-03T02:24:03.808Z,33.74
2023-04-03T02:25:03.786Z,33.73
2023-04-03T02:26:03.764Z,33.78
2023-04-03T02:27:03.780Z,33.67
2023-04-03T02:28:03.747Z,33.70
2023-04-03T02:29:03.767Z,33.74
2023-04-03T02:30:03.728Z,33.75
2023-04-03T02:31:03.798Z,33.73
2023-04-03T02:32:03.723Z,33.72
2023-04-03T02:33:03.754Z,33.72
2023-04-03T02:34:03.757Z,33.68
2023-04-03T02:35:03.708Z,33.67
2023-04-03T02:36:03.730Z,33.67
2023-04-03T02:37:03.716Z,33.69
2023-04-03T02:38:03.704Z,33.69
2023-04-03T02:39:03.727Z,33.73
2023-04-03T02:40:03.676Z,33.66
2023-04-03T02:41:03.693Z,33.68
2023-04-03T02:42:03.770Z,33.66
2023-04-03T02:43:03.660Z,33.70
2023-04-03T02:44:03.649Z,33.66
2023-04-03T02:45:03.646Z,33.69
2023-04-03T02:46:03.831Z,33.61
2023-04-03T02:47:03.645Z,33.67
2023-04-03T02:48:03.646Z,33.64
2023-04-03T02:49:03.620Z,33.66
2023-04-03T02:50:03.646Z,33.61
2023-04-03T02:51:03.633Z,33.62
2023-04-03T02:52:03.618Z,33.65
2023-04-03T02:53:03.594Z,33.64
2023-04-03T02:54:03.630Z,33.61
2023-04-03T02:55:03.665Z,33.59
2023-04-03T02:56:03.665Z,33.61
2023-04-03T02:57:03.723Z,33.61
2023-04-03T02:58:03.782Z,33.61
2023-04-03T02:59:03.806Z,33.54
2023-04-03T03:00:03.846Z,33.60
2023-04-03T03:01:03.852Z,33.56
2023-04-03T03:02:03.956Z,33.59
2023-04-03T03:03:03.958Z,33.57
2023-04-03T03:04:03.974Z,33.61
2023-04-03T03:05:04.090Z,33.55
2023-04-03T03:06:04.049Z,33.60
2023-04-03T03:07:04.070Z,33.59
2023-04-03T03:08:04.107Z,33.59
2023-04-03T03:09:04.126Z,33.53
2023-04-03T03:10:04.200Z,33.57
2023-04-03T03:11:04.226Z,33.57
2023-04-03T03:12:04.285Z,33.52
2023-04-03T03:13:04.322Z,33.59
2023-04-03T03:14:04.307Z,33.53
2023-04-03T03:15:04.360Z,33.51
2023-04-03T03:16:04.415Z,33.55
2023-04-03T03:17:04.447Z,33.52
2023-04-03T03:18:04.524Z,33.53
2023-04-03T03:19:04.530Z,33.56
2023-04-03T03:20:04.529Z,33.51
2023-04-03T03:21:04.587Z,33.52
2023-04-03T03:22:04.591Z,33.52
2023-04-03T03:23:04.634Z,33.51
2023-04-03T03:24:04.684Z,33.51
2023-04-03T03:25:04.722Z,33.52
2023-04-03T03:26:04.773Z,33.52
2023-04-03T03:27:04.820Z,33.56
2023-04-03T03:28:04.813Z,33.48
2023-04-03T03:29:04.879Z,33.49
2023-04-03T03:30:04.885Z,33.48
2023-04-03T03:31:04.921Z,33.52
2023-04-03T03:32:05.005Z,33.51
2023-04-03T03:33:05.087Z,33.47
2023-04-03T03:34:05.016Z,33.54
2023-04-03T03:35:05.066Z,33.49
2023-04-03T03:36:05.181Z,33.52
2023-04-03T03:37:05.119Z,33.47
2023-04-03T03:38:05.220Z,33.49
2023-04-03T03:39:05.169Z,33.48
2023-04-03T03:40:05.230Z,33.47
2023-04-03T03:41:05.287Z,33.48
2023-04-03T03:42:05.302Z,33.48
2023-04-03T03:43:05.344Z,33.47
2023-04-03T03:44:05.369Z,33.48
2023-04-03T03:45:05.372Z,33.45
2023-04-03T03:46:05.407Z,33.50
2023-04-03T03:47:05.475Z,33.45
2023-04-03T03:48:05.535Z,33.48
2023-04-03T03:49:05.530Z,33.47
2023-04-03T03:50:05.543Z,33.44
2023-04-03T03:51:05.628Z,33.44
2023-04-03T03:52:05.670Z,33.44
2023-04-03T03:53:05.677Z,33.44
2023-04-03T03:54:05.706Z,33.40
2023-04-03T03:55:05.755Z,33.48
2023-04-03T03:56:05.772Z,33.40
2023-04-03T03:57:05.845Z,33.44
2023-04-03T03:58:05.839Z,33.43
2023-04-03T03:59:05.870Z,33.44
2023-04-03T04:00:05.906Z,33.39
2023-04-03T04:01:05.915Z,33.44
2023-04-03T04:02:06.062Z,33.39
2023-04-03T04:03:06.059Z,33.40
2023-04-03T04:04:06.093Z,33.39
2023-04-03T04:05:06.081Z,33.37
2023-04-03T04:06:06.136Z,33.39
2023-04-03T04:07:06.167Z,33.35
2023-04-03T04:08:06.167Z,33.33
2023-04-03T04:09:06.234Z,33.36
2023-04-03T04:10:06.262Z,33.35
2023-04-03T04:11:06.283Z,33.35
2023-04-03T04:12:06.357Z,33.37
2023-04-03T04:13:06.363Z,33.35
2023-04-03T04:14:06.394Z,33.35
2023-04-03T04:15:06.433Z,33.33
2023-04-03T04:16:06.489Z,33.33
2023-04-03T04:17:06.575Z,33.35
2023-04-03T04:18:06.552Z,33.35
2023-04-03T04:19:08.772Z,33.35
2023-04-03T04:20:06.614Z,33.33
2023-04-03T04:21:06.610Z,33.33
2023-04-03T04:22:06.662Z,33.32
2023-04-03T04:23:06.711Z,33.33
2023-04-03T04:24:06.752Z,33.36
2023-04-03T04:25:06.760Z,33.33
2023-04-03T04:26:06.806Z,33.29
2023-04-03T04:27:06.828Z,33.32
2023-04-03T04:28:06.864Z,33.30
2023-04-03T04:29:06.900Z,33.26
2023-04-03T04:30:06.934Z,33.30
2023-04-03T04:31:07.002Z,33.27
2023-04-03T04:32:07.031Z,33.30
2023-04-03T04:33:07.066Z,33.27
2023-04-03T04:34:07.092Z,33.25
2023-04-03T04:35:07.139Z,33.30
2023-04-03T04:36:07.199Z,33.22
2023-04-03T04:37:07.257Z,33.26
2023-04-03T04:38:07.201Z,33.25
2023-04-03T04:39:07.253Z,33.24
2023-04-03T04:40:07.275Z,33.22
2023-04-03T04:41:07.313Z,33.25
2023-04-03T04:42:07.391Z,33.27
2023-04-03T04:43:07.387Z,33.26
2023-04-03T04:44:07.431Z,33.24
2023-04-03T04:45:07.450Z,33.26
2023-04-03T04:46:07.559Z,33.25
2023-04-03T04:47:07.535Z,33.27
2023-04-03T04:48:07.630Z,33.23
2023-04-03T04:49:08.341Z,33.22
2023-04-03T04:50:07.612Z,33.25
2023-04-03T04:51:07.638Z,33.24
2023-04-03T04:52:07.680Z,33.23
2023-04-03T04:53:07.717Z,33.24
2023-04-03T04:54:07.757Z,33.22
2023-04-03T04:55:07.804Z,33.18
2023-04-03T04:56:07.819Z,33.21
2023-04-03T04:57:07.893Z,33.18
2023-04-03T04:58:07.877Z,33.16
2023-04-03T04:59:07.933Z,33.18
2023-04-03T05:00:07.979Z,33.18
2023-04-03T05:01:08.028Z,33.15
2023-04-03T05:02:08.168Z,33.18
2023-04-03T05:03:08.149Z,33.18
2023-04-03T05:04:08.090Z,33.18
2023-04-03T05:05:08.189Z,33.17
2023-04-03T05:06:08.173Z,33.18
2023-04-03T05:07:08.245Z,33.24
2023-04-03T05:08:08.244Z,33.18
2023-04-03T05:09:08.281Z,33.14
2023-04-03T05:10:08.339Z,33.16
2023-04-03T05:11:08.385Z,33.13
2023-04-03T05:12:08.419Z,33.13
2023-04-03T05:13:08.440Z,33.17
2023-04-03T05:14:08.465Z,33.16
2023-04-03T05:15:08.482Z,33.15
2023-04-03T05:16:08.566Z,33.18
2023-04-03T05:17:08.600Z,33.12
2023-04-03T05:18:08.599Z,33.16
2023-04-03T05:19:08.671Z,33.15
2023-04-03T05:20:08.697Z,33.13
2023-04-03T05:21:08.709Z,33.13
2023-04-03T05:22:08.777Z,33.12
2023-04-03T05:23:08.817Z,33.09
2023-04-03T05:24:08.805Z,33.09
2023-04-03T05:25:08.887Z,33.13
2023-04-03T05:26:08.879Z,33.09
2023-04-03T05:27:08.933Z,33.12
2023-04-03T05:28:08.950Z,33.12
2023-04-03T05:29:08.998Z,33.11
2023-04-03T05:30:09.086Z,33.05
2023-04-03T05:31:09.088Z,33.12
2023-04-03T05:32:09.138Z,33.11
2023-04-03T05:33:09.164Z,33.13
2023-04-03T05:34:09.187Z,33.15
2023-04-03T05:35:09.274Z,33.08
2023-04-03T05:36:09.325Z,33.06
2023-04-03T05:37:09.302Z,33.06
2023-04-03T05:38:09.311Z,33.09
2023-04-03T05:39:09.338Z,33.09
2023-04-03T05:40:09.397Z,33.11
2023-04-03T05:41:09.448Z,33.08
2023-04-03T05:42:09.509Z,33.08
2023-04-03T05:43:09.538Z,33.05
2023-04-03T05:44:09.547Z,33.05
2023-04-03T05:45:09.573Z,33.05
2023-04-03T05:46:10.396Z,33.07
2023-04-03T05:47:09.674Z,33.07
2023-04-03T05:48:09.766Z,33.08
2023-04-03T05:49:09.716Z,33.04
2023-04-03T05:50:09.759Z,33.05
2023-04-03T05:51:09.822Z,33.01
2023-04-03T05:52:09.855Z,33.05
2023-04-03T05:53:09.868Z,33.07
2023-04-03T05:54:09.902Z,33.01
2023-04-03T05:55:09.965Z,33.04
2023-04-03T05:56:09.983Z,33.05
2023-04-03T05:57:10.026Z,32.98
2023-04-03T05:58:11.726Z,33.02
2023-04-03T05:59:10.074Z,33.04
2023-04-03T06:00:10.131Z,33.04
2023-04-03T06:01:10.152Z,32.97
2023-04-03T06:02:10.216Z,32.98
2023-04-03T06:03:10.383Z,33.04
2023-04-03T06:04:10.380Z,33.02
2023-04-03T06:05:10.327Z,33.00
2023-04-03T06:06:10.323Z,33.06
2023-04-03T06:07:10.360Z,32.97
2023-04-03T06:08:10.378Z,32.95
2023-04-03T06:09:10.422Z,33.01
2023-04-03T06:10:10.481Z,32.94
2023-04-03T06:11:10.530Z,33.00
2023-04-03T06:12:10.565Z,32.97
2023-04-03T06:13:10.578Z,33.01
2023-04-03T06:14:10.620Z,33.00
2023-04-03T06:15:10.652Z,32.98
2023-04-03T06:16:10.690Z,32.95
2023-04-03T06:17:10.776Z,32.95
2023-04-03T06:18:10.815Z,32.98
2023-04-03T06:19:10.779Z,32.97
2023-04-03T06:20:10.847Z,32.95
2023-04-03T06:21:10.900Z,32.95
2023-04-03T06:22:10.941Z,32.95
2023-04-03T06:23:10.938Z,32.93
2023-04-03T06:24:10.981Z,32.91
2023-04-03T06:25:11.032Z,33.00
2023-04-03T06:26:11.074Z,32.93
2023-04-03T06:27:11.072Z,32.93
2023-04-03T06:28:11.115Z,32.93
2023-04-03T06:29:11.169Z,32.91
2023-04-03T06:30:11.209Z,32.91
2023-04-03T06:31:11.311Z,32.91
2023-04-03T06:32:11.250Z,32.91
2023-04-03T06:33:11.335Z,32.90
2023-04-03T06:34:11.326Z,32.88
2023-04-03T06:35:11.361Z,32.86
2023-04-03T06:36:11.431Z,32.90
2023-04-03T06:37:11.448Z,32.84
2023-04-03T06:38:11.502Z,32.91
2023-04-03T06:39:11.527Z,32.87
2023-04-03T06:40:11.530Z,32.90
2023-04-03T06:41:11.613Z,32.88
2023-04-03T06:42:11.611Z,32.87
2023-04-03T06:43:11.664Z,32.87
2023-04-03T06:44:11.691Z,32.87
2023-04-03T06:45:11.722Z,32.87
2023-04-03T06:46:11.754Z,32.84
2023-04-03T06:47:11.818Z,32.90
2023-04-03T06:48:11.869Z,32.85
2023-04-03T06:49:11.856Z,32.87
2023-04-03T06:50:11.909Z,32.87
2023-04-03T06:51:11.969Z,32.86
2023-04-03T06:52:11.979Z,32.83
2023-04-03T06:53:12.010Z,32.79
2023-04-03T06:54:12.150Z,32.81
2023-04-03T06:55:12.100Z,32.81
2023-04-03T06:56:13.916Z,32.80
2023-04-03T06:57:12.203Z,32.87
2023-04-03T06:58:12.207Z,32.79
2023-04-03T06:59:12.225Z,32.83
2023-04-03T07:00:12.272Z,32.86
2023-04-03T07:01:12.334Z,32.83
2023-04-03T07:02:12.356Z,32.80
2023-04-03T07:03:12.400Z,32.83
2023-04-03T07:04:12.443Z,32.80
2023-04-03T07:05:12.458Z,32.80
2023-04-03T07:06:12.500Z,32.81
2023-04-03T07:07:12.546Z,32.79
2023-04-03T07:08:12.578Z,32.79
2023-04-03T07:09:12.582Z,32.84
2023-04-03T07:10:12.611Z,32.79
2023-04-03T07:11:12.701Z,32.84
2023-04-03T07:12:12.706Z,32.81
2023-04-03T07:13:12.761Z,32.79
2023-04-03T07:14:12.791Z,32.79
2023-04-03T07:15:12.809Z,32.82
2023-04-03T07:16:12.899Z,32.81
2023-04-03T07:17:12.885Z,32.80
2023-04-03T07:18:12.920Z,32.84
2023-04-03T07:19:12.970Z,32.80
2023-04-03T07:20:12.997Z,32.74
2023-04-03T07:21:13.009Z,32.79
2023-04-03T07:22:13.052Z,32.77
2023-04-03T07:23:13.113Z,32.80
2023-04-03T07:24:15.997Z,32.83
2023-04-03T07:25:13.147Z,32.80
2023-04-03T07:26:13.160Z,32.80
2023-04-03T07:27:13.112Z,32.79
2023-04-03T07:28:13.129Z,32.77
2023-04-03T07:29:13.130Z,32.75
2023-04-03T07:30:13.074Z,32.79
2023-04-03T07:31:13.177Z,32.76
2023-04-03T07:32:13.204Z,32.80
2023-04-03T07:33:13.065Z,32.76
2023-04-03T07:34:13.091Z,32.77
2023-04-03T07:35:13.072Z,32.77
2023-04-03T07:36:13.068Z,32.80
2023-04-03T07:37:13.055Z,32.73
2023-04-03T07:38:13.039Z,32.76
2023-04-03T07:39:13.037Z,32.77
2023-04-03T07:40:13.038Z,32.72
2023-04-03T07:41:13.004Z,32.77
2023-04-03T07:42:13.032Z,32.76
2023-04-03T07:43:13.053Z,32.79
2023-04-03T07:44:13.077Z,32.77
2023-04-03T07:45:13.022Z,32.74
2023-04-03T07:46:13.074Z,32.77
2023-04-03T07:47:12.996Z,32.72
2023-04-03T07:48:12.999Z,32.76
2023-04-03T07:49:12.990Z,32.73
2023-04-03T07:50:12.965Z,32.73
2023-04-03T07:51:13.007Z,32.73
2023-04-03T07:52:12.947Z,32.74
2023-04-03T07:53:12.955Z,32.69
2023-04-03T07:54:13.020Z,32.72
2023-04-03T07:55:12.936Z,32.72
2023-04-03T07:56:12.945Z,32.72
2023-04-03T07:57:12.936Z,32.69
2023-04-03T07:58:12.920Z,32.70
2023-04-03T07:59:12.893Z,32.69
2023-04-03T08:00:12.869Z,32.68
2023-04-03T08:01:12.887Z,32.69
2023-04-03T08:02:12.870Z,32.66
2023-04-03T08:03:13.095Z,32.69
2023-04-03T08:04:12.987Z,32.65
2023-04-03T08:05:12.898Z,32.68
2023-04-03T08:06:16.211Z,32.68
2023-04-03T08:07:12.887Z,32.64
2023-04-03T08:08:12.888Z,32.64
2023-04-03T08:09:12.926Z,32.68
2023-04-03T08:10:12.919Z,32.68
2023-04-03T08:11:12.876Z,32.65
2023-04-03T08:12:12.898Z,32.68
2023-04-03T08:13:12.852Z,32.66
2023-04-03T08:14:12.873Z,32.68
2023-04-03T08:15:12.843Z,32.65
2023-04-03T08:16:12.918Z,32.62
2023-04-03T08:17:12.853Z,32.69
2023-04-03T08:18:12.831Z,32.66
2023-04-03T08:19:22.425Z,32.63
2023-04-03T08:20:13.831Z,32.63
2023-04-03T08:21:12.815Z,32.61
2023-04-03T08:22:12.798Z,32.65
2023-04-03T08:23:12.823Z,32.64
2023-04-03T08:24:12.790Z,32.61
2023-04-03T08:25:12.790Z,32.59
2023-04-03T08:26:12.853Z,32.59
2023-04-03T08:27:12.742Z,32.62
2023-04-03T08:28:12.782Z,32.62
2023-04-03T08:29:12.766Z,32.62
2023-04-03T08:30:12.722Z,32.62
2023-04-03T08:31:12.780Z,32.59
2023-04-03T08:32:12.728Z,32.61
2023-04-03T08:33:12.783Z,32.59
2023-04-03T08:34:12.771Z,32.64
2023-04-03T08:35:12.782Z,32.58
2023-04-03T08:36:12.771Z,32.59
2023-04-03T08:37:12.793Z,32.57
2023-04-03T08:38:12.818Z,32.59
2023-04-03T08:39:12.879Z,32.57
2023-04-03T08:40:12.920Z,32.57
2023-04-03T08:41:12.962Z,32.53
2023-04-03T08:42:12.978Z,32.53
2023-04-03T08:43:13.013Z,32.48
2023-04-03T08:44:13.039Z,32.55
2023-04-03T08:45:13.058Z,32.55
2023-04-03T08:46:13.200Z,32.54
2023-04-03T08:47:13.162Z,32.51
2023-04-03T08:48:13.256Z,32.51
2023-04-03T08:49:13.980Z,32.48
2023-04-03T08:50:13.283Z,32.51
2023-04-03T08:51:13.253Z,32.50
2023-04-03T08:52:13.380Z,32.48
2023-04-03T08:53:13.317Z,32.48
2023-04-03T08:54:13.386Z,32.50
2023-04-03T08:55:13.385Z,32.48
2023-04-03T08:56:13.427Z,32.45
2023-04-03T08:57:13.488Z,32.43
2023-04-03T08:58:13.970Z,32.46
2023-04-03T08:59:13.525Z,32.45
2023-04-03T09:00:13.596Z,32.48
2023-04-03T09:01:13.597Z,32.47
2023-04-03T09:02:13.630Z,32.45
2023-04-03T09:03:13.746Z,32.49
2023-04-03T09:04:13.722Z,32.42
2023-04-03T09:05:13.712Z,32.45
2023-04-03T09:06:13.778Z,32.49
2023-04-03T09:07:13.788Z,32.42
2023-04-03T09:08:13.884Z,32.43
2023-04-03T09:09:13.826Z,32.42
2023-04-03T09:10:13.869Z,32.43
2023-04-03T09:11:13.881Z,32.40
2023-04-03T09:12:13.960Z,32.47
2023-04-03T09:13:13.961Z,32.42
2023-04-03T09:14:14.028Z,32.42
2023-04-03T09:15:14.326Z,32.40
2023-04-03T09:16:14.081Z,32.43
2023-04-03T09:17:14.104Z,32.46
2023-04-03T09:18:14.125Z,32.40
2023-04-03T09:19:14.204Z,32.37
2023-04-03T09:20:14.203Z,32.40
2023-04-03T09:21:14.220Z,32.43
2023-04-03T09:22:14.278Z,32.36
2023-04-03T09:23:14.309Z,32.39
2023-04-03T09:24:14.449Z,32.38
2023-04-03T09:25:14.360Z,32.40
2023-04-03T09:26:14.398Z,32.37
2023-04-03T09:27:14.513Z,32.40
2023-04-03T09:28:14.481Z,32.36
2023-04-03T09:29:14.510Z,32.35
2023-04-03T09:30:14.539Z,32.35
2023-04-03T09:31:14.723Z,32.37
2023-04-03T09:32:14.661Z,32.35
2023-04-03T09:33:14.695Z,32.36
2023-04-03T09:34:14.666Z,32.37
2023-04-03T09:35:20.741Z,32.39
2023-04-03T09:36:15.760Z,32.35
2023-04-03T09:37:14.718Z,32.32
2023-04-03T09:38:15.176Z,32.33
2023-04-03T09:39:14.725Z,32.33
2023-04-03T09:40:14.801Z,32.29
2023-04-03T09:41:14.729Z,32.30
2023-04-03T09:42:15.410Z,32.33
2023-04-03T09:43:14.679Z,32.32
2023-04-03T09:44:14.676Z,32.30
2023-04-03T09:45:14.641Z,32.31
2023-04-03T09:46:14.675Z,32.32
2023-04-03T09:47:14.660Z,32.33
2023-04-03T09:49:14.624Z,32.32
2023-04-03T09:50:14.631Z,32.29
2023-04-03T09:51:14.635Z,32.35
2023-04-03T09:52:14.641Z,32.32
2023-04-03T09:53:14.649Z,32.27
2023-04-03T09:54:14.648Z,32.29
2023-04-03T09:55:14.722Z,32.28
2023-04-03T09:56:14.874Z,32.29
2023-04-03T09:57:14.822Z,32.28
2023-04-03T09:58:14.794Z,32.25
2023-04-03T09:59:14.839Z,32.26
2023-04-03T10:00:14.893Z,32.26
2023-04-03T10:01:14.995Z,32.25
2023-04-03T10:02:14.929Z,32.24
2023-04-03T10:03:14.982Z,32.24
2023-04-03T10:04:15.087Z,32.24
2023-04-03T10:05:15.034Z,32.24
2023-04-03T10:06:15.093Z,32.24
2023-04-03T10:07:15.094Z,32.24
2023-04-03T10:08:15.143Z,32.22
2023-04-03T10:09:15.173Z,32.22
2023-04-03T10:10:15.228Z,32.24
2023-04-03T10:11:15.291Z,32.19
2023-04-03T10:12:15.419Z,32.22
2023-04-03T10:13:20.560Z,32.21
2023-04-03T10:14:16.303Z,32.22
2023-04-03T10:15:15.293Z,32.18
2023-04-03T10:16:15.392Z,32.19
2023-04-03T10:17:15.291Z,32.19
2023-04-03T10:18:24.303Z,32.17
2023-04-03T10:19:16.252Z,32.18
2023-04-03T10:20:15.266Z,32.21
2023-04-03T10:21:26.626Z,32.11
2023-04-03T10:22:16.255Z,32.13
2023-04-03T10:23:15.260Z,32.14
2023-04-03T10:24:15.254Z,32.14
2023-04-03T10:25:15.208Z,32.13
2023-04-03T10:26:15.229Z,32.17
2023-04-03T10:27:15.193Z,32.14
2023-04-03T10:28:15.301Z,32.14
2023-04-03T10:29:15.181Z,32.07
2023-04-03T10:30:15.203Z,32.10
2023-04-03T10:31:15.233Z,32.13
2023-04-03T10:32:15.210Z,32.13
2023-04-03T10:33:15.194Z,32.11
2023-04-03T10:34:15.171Z,32.11
2023-04-03T10:35:15.151Z,32.09
2023-04-03T10:36:15.155Z,32.10
2023-04-03T10:37:15.152Z,32.09
2023-04-03T10:38:15.157Z,32.07
2023-04-03T10:39:15.193Z,32.09
2023-04-03T10:40:15.203Z,32.06
2023-04-03T10:41:16.497Z,32.11
2023-04-03T10:42:17.034Z,32.06
2023-04-03T10:43:15.287Z,32.06
2023-04-03T10:44:15.413Z,32.09
2023-04-03T10:45:15.317Z,32.03
2023-04-03T10:46:15.389Z,32.04
2023-04-03T10:47:15.403Z,32.10
2023-04-03T10:48:15.475Z,32.07
2023-04-03T10:49:15.519Z,32.06
2023-04-03T10:50:15.555Z,32.02
2023-04-03T10:51:15.539Z,32.06
2023-04-03T10:52:15.592Z,32.01
2023-04-03T10:53:15.605Z,32.03
2023-04-03T10:54:15.647Z,31.99
2023-04-03T10:55:15.692Z,32.02
2023-04-03T10:56:15.708Z,32.06
2023-04-03T10:57:15.785Z,32.00
2023-04-03T10:58:15.746Z,32.00
2023-04-03T10:59:15.828Z,32.00
2023-04-03T11:00:15.926Z,32.04
2023-04-03T11:01:15.915Z,32.02
2023-04-03T11:02:15.886Z,32.03
2023-04-03T11:03:15.976Z,32.02
2023-04-03T11:04:15.939Z,32.04
2023-04-03T11:05:16.005Z,32.02
2023-04-03T11:06:16.036Z,32.06
2023-04-03T11:07:16.059Z,32.03
2023-04-03T11:08:16.153Z,32.03
2023-04-03T11:09:16.092Z,31.99
2023-04-03T11:10:16.177Z,31.97
2023-04-03T11:11:16.189Z,32.00
2023-04-03T11:12:16.223Z,31.99
2023-04-03T11:13:16.219Z,32.00
2023-04-03T11:14:16.269Z,31.99
2023-04-03T11:15:16.317Z,32.02
2023-04-03T11:16:16.437Z,31.98
2023-04-03T11:17:16.366Z,31.93
2023-04-03T11:18:16.410Z,31.98
2023-04-03T11:19:16.432Z,31.98
2023-04-03T11:20:16.506Z,31.96
2023-04-03T11:21:16.526Z,31.95
2023-04-03T11:22:16.547Z,31.96
2023-04-03T11:23:16.577Z,31.93
2023-04-03T11:24:16.606Z,31.98
2023-04-03T11:25:16.648Z,31.95
2023-04-03T11:26:16.706Z,31.96
2023-04-03T11:27:16.692Z,31.95
2023-04-03T11:28:16.752Z,31.92
2023-04-03T11:29:28.236Z,31.96
2023-04-03T11:30:17.736Z,31.95
2023-04-03T11:31:16.785Z,31.95
2023-04-03T11:32:16.855Z,31.95
2023-04-03T11:33:16.724Z,31.98
2023-04-03T11:34:16.753Z,31.89
2023-04-03T11:35:16.732Z,31.91
2023-04-03T11:36:25.561Z,31.92
2023-04-03T11:37:17.698Z,31.98
2023-04-03T11:38:16.697Z,31.89
2023-04-03T11:39:16.748Z,31.92
2023-04-03T11:40:16.682Z,31.95
2023-04-03T11:41:16.682Z,31.95
2023-04-03T11:42:16.686Z,31.91
2023-04-03T11:43:16.670Z,31.92
2023-04-03T11:44:16.678Z,31.93
2023-04-03T11:45:16.675Z,31.89
2023-04-03T11:46:16.671Z,31.92
2023-04-03T11:47:16.646Z,31.91
2023-04-03T11:48:24.439Z,31.91
2023-04-03T11:49:17.603Z,31.85
2023-04-03T11:50:16.646Z,31.89
2023-04-03T11:51:16.592Z,31.89
2023-04-03T11:52:16.626Z,31.93
2023-04-03T11:53:16.605Z,31.89
2023-04-03T11:54:16.579Z,31.83
2023-04-03T11:55:16.574Z,31.88
2023-04-03T11:56:16.549Z,31.85
2023-04-03T11:57:16.634Z,31.88
2023-04-03T11:58:16.565Z,31.85
2023-04-03T11:59:16.536Z,31.83
2023-04-03T12:00:16.546Z,31.86
2023-04-03T12:01:16.551Z,31.88
2023-04-03T12:02:16.670Z,31.89
2023-04-03T12:03:16.595Z,31.86
2023-04-03T12:04:16.732Z,31.84
2023-04-03T12:05:16.644Z,31.84
2023-04-03T12:06:16.605Z,31.78
2023-04-03T12:07:16.636Z,31.85
2023-04-03T12:08:16.668Z,31.85
2023-04-03T12:09:16.682Z,31.88
2023-04-03T12:10:30.415Z,31.85
2023-04-03T12:11:17.740Z,31.85
2023-04-03T12:12:16.707Z,31.84
2023-04-03T12:13:16.721Z,31.86
2023-04-03T12:14:16.694Z,31.84
2023-04-03T12:15:16.670Z,31.81
2023-04-03T12:16:16.716Z,31.85
2023-04-03T12:17:16.668Z,31.81
2023-04-03T12:18:16.638Z,31.85
2023-04-03T12:19:16.643Z,31.80
2023-04-03T12:20:16.734Z,31.86
2023-04-03T12:21:16.642Z,31.81
2023-04-03T12:22:16.632Z,31.81
2023-04-03T12:23:16.617Z,31.84
2023-04-03T12:24:16.637Z,31.81
2023-04-03T12:25:16.644Z,31.80
2023-04-03T12:26:16.621Z,31.75
2023-04-03T12:27:16.641Z,31.80
2023-04-03T12:28:16.695Z,31.80
2023-04-03T12:29:16.757Z,31.85
2023-04-03T12:30:16.760Z,31.80
2023-04-03T12:31:16.851Z,31.81
2023-04-03T12:32:16.834Z,31.78
2023-04-03T12:33:16.881Z,31.84
2023-04-03T12:34:16.872Z,31.80
2023-04-03T12:35:16.896Z,31.82
2023-04-03T12:36:17.097Z,31.77
2023-04-03T12:37:17.019Z,31.77
2023-04-03T12:38:17.035Z,31.80
2023-04-03T12:39:17.043Z,31.81
2023-04-03T12:40:17.112Z,31.78
2023-04-03T12:41:17.130Z,31.76
2023-04-03T12:42:17.175Z,31.74
2023-04-03T12:43:17.237Z,31.81
2023-04-03T12:44:17.204Z,31.80
2023-04-03T12:45:17.284Z,31.77
2023-04-03T12:46:17.562Z,31.77
2023-04-03T12:47:17.383Z,31.80
2023-04-03T12:48:17.366Z,31.75
2023-04-03T12:49:17.406Z,31.77
2023-04-03T12:50:17.448Z,31.80
2023-04-03T12:51:17.472Z,31.78
2023-04-03T12:52:17.604Z,31.80
2023-04-03T12:53:17.531Z,31.74
2023-04-03T12:54:17.599Z,31.78